﻿<?xml version="1.0" encoding="utf-8"?><gpx creator="Garmin Desktop App" version="1.1" xsi:schemaLocation="http://www.topografix.com/GPX/1/1 http://www.topografix.com/GPX/1/1/gpx.xsd http://www.garmin.com/xmlschemas/WaypointExtension/v1 http://www8.garmin.com/xmlschemas/WaypointExtensionv1.xsd http://www.garmin.com/xmlschemas/TrackPointExtension/v1 http://www.garmin.com/xmlschemas/TrackPointExtensionv1.xsd http://www.garmin.com/xmlschemas/GpxExtensions/v3 http://www8.garmin.com/xmlschemas/GpxExtensionsv3.xsd http://www.garmin.com/xmlschemas/ActivityExtension/v1 http://www8.garmin.com/xmlschemas/ActivityExtensionv1.xsd http://www.garmin.com/xmlschemas/AdventuresExtensions/v1 http://www8.garmin.com/xmlschemas/AdventuresExtensionv1.xsd http://www.garmin.com/xmlschemas/PressureExtension/v1 http://www.garmin.com/xmlschemas/PressureExtensionv1.xsd http://www.garmin.com/xmlschemas/TripExtensions/v1 http://www.garmin.com/xmlschemas/TripExtensionsv1.xsd http://www.garmin.com/xmlschemas/TripMetaDataExtensions/v1 http://www.garmin.com/xmlschemas/TripMetaDataExtensionsv1.xsd http://www.garmin.com/xmlschemas/ViaPointTransportationModeExtensions/v1 http://www.garmin.com/xmlschemas/ViaPointTransportationModeExtensionsv1.xsd http://www.garmin.com/xmlschemas/CreationTimeExtension/v1 http://www.garmin.com/xmlschemas/CreationTimeExtensionsv1.xsd http://www.garmin.com/xmlschemas/AccelerationExtension/v1 http://www.garmin.com/xmlschemas/AccelerationExtensionv1.xsd http://www.garmin.com/xmlschemas/PowerExtension/v1 http://www.garmin.com/xmlschemas/PowerExtensionv1.xsd http://www.garmin.com/xmlschemas/VideoExtension/v1 http://www.garmin.com/xmlschemas/VideoExtensionv1.xsd" xmlns="http://www.topografix.com/GPX/1/1" xmlns:xsi="http://www.w3.org/2001/XMLSchema-instance" xmlns:wptx1="http://www.garmin.com/xmlschemas/WaypointExtension/v1" xmlns:gpxtrx="http://www.garmin.com/xmlschemas/GpxExtensions/v3" xmlns:gpxtpx="http://www.garmin.com/xmlschemas/TrackPointExtension/v1" xmlns:gpxx="http://www.garmin.com/xmlschemas/GpxExtensions/v3" xmlns:trp="http://www.garmin.com/xmlschemas/TripExtensions/v1" xmlns:adv="http://www.garmin.com/xmlschemas/AdventuresExtensions/v1" xmlns:prs="http://www.garmin.com/xmlschemas/PressureExtension/v1" xmlns:tmd="http://www.garmin.com/xmlschemas/TripMetaDataExtensions/v1" xmlns:vptm="http://www.garmin.com/xmlschemas/ViaPointTransportationModeExtensions/v1" xmlns:ctx="http://www.garmin.com/xmlschemas/CreationTimeExtension/v1" xmlns:gpxacc="http://www.garmin.com/xmlschemas/AccelerationExtension/v1" xmlns:gpxpx="http://www.garmin.com/xmlschemas/PowerExtension/v1" xmlns:vidx1="http://www.garmin.com/xmlschemas/VideoExtension/v1">

  <metadata>
    <link href="http://www.garmin.com">
      <text>Garmin International</text>
    </link>
    <time>2023-04-16T18:09:39Z</time>
    <bounds maxlat="50.734164984896779" maxlon="4.79955998249352" minlat="50.684295007959008" minlon="4.719220027327538" />
  </metadata>

  <trk>
    <name>Grez Doiciau 26 km</name>
    <extensions>
      <gpxx:TrackExtension>
        <gpxx:DisplayColor>Magenta</gpxx:DisplayColor>
      </gpxx:TrackExtension>
    </extensions>
    <trkseg>
      <trkpt lat="50.711584975942969" lon="4.787605041638017">
        <ele>233.99000000000001</ele>
        <time>2023-04-02T10:10:22Z</time>
      </trkpt>
      <trkpt lat="50.712056960910559" lon="4.78699098341167">
        <ele>233.41900000000001</ele>
        <time>2023-04-02T10:10:59Z</time>
      </trkpt>
      <trkpt lat="50.712994979694486" lon="4.786463007330895">
        <ele>230.209</ele>
        <time>2023-04-02T10:11:59Z</time>
      </trkpt>
      <trkpt lat="50.713796960189939" lon="4.786568032577634">
        <ele>234.69800000000001</ele>
        <time>2023-04-02T10:12:46Z</time>
      </trkpt>
      <trkpt lat="50.714687034487724" lon="4.786405004560947">
        <ele>238.63</ele>
        <time>2023-04-02T10:13:36Z</time>
      </trkpt>
      <trkpt lat="50.715671991929412" lon="4.786563003435731">
        <ele>248.197</ele>
        <time>2023-04-02T10:14:33Z</time>
      </trkpt>
      <trkpt lat="50.716546978801489" lon="4.785474026575685">
        <ele>234.97900000000001</ele>
        <time>2023-04-02T10:15:36Z</time>
      </trkpt>
      <trkpt lat="50.717122983187437" lon="4.785069013014436">
        <ele>233.727</ele>
        <time>2023-04-02T10:16:09Z</time>
      </trkpt>
      <trkpt lat="50.718022026121616" lon="4.785068007186055">
        <ele>236.59800000000001</ele>
        <time>2023-04-02T10:17:05Z</time>
      </trkpt>
      <trkpt lat="50.718026971444488" lon="4.784581018611789">
        <ele>235.179</ele>
        <time>2023-04-02T10:17:26Z</time>
      </trkpt>
      <trkpt lat="50.718185976147652" lon="4.784432994201779">
        <ele>235.54300000000001</ele>
        <time>2023-04-02T10:17:53Z</time>
      </trkpt>
      <trkpt lat="50.71869702078402" lon="4.78232704102993">
        <ele>229.977</ele>
        <time>2023-04-02T10:19:18Z</time>
      </trkpt>
      <trkpt lat="50.720578003674746" lon="4.779678024351597">
        <ele>220.411</ele>
        <time>2023-04-02T10:21:29Z</time>
      </trkpt>
      <trkpt lat="50.721305971965194" lon="4.778884006664157">
        <ele>222.12100000000001</ele>
        <time>2023-04-02T10:22:01Z</time>
      </trkpt>
      <trkpt lat="50.721808969974518" lon="4.777856972068548">
        <ele>220.803</ele>
        <time>2023-04-02T10:22:25Z</time>
      </trkpt>
      <trkpt lat="50.723688025027514" lon="4.775418005883694">
        <ele>193.90899999999999</ele>
        <time>2023-04-02T10:23:31Z</time>
      </trkpt>
      <trkpt lat="50.723750973120332" lon="4.775053979828954">
        <ele>202.012</ele>
        <time>2023-04-02T10:23:50Z</time>
      </trkpt>
      <trkpt lat="50.723567996174097" lon="4.774474035948515">
        <ele>213.994</ele>
        <time>2023-04-02T10:24:28Z</time>
      </trkpt>
      <trkpt lat="50.722095966339111" lon="4.77489204145968">
        <ele>219.81100000000001</ele>
        <time>2023-04-02T10:25:54Z</time>
      </trkpt>
      <trkpt lat="50.721046971157193" lon="4.775305017828941">
        <ele>217.56299999999999</ele>
        <time>2023-04-02T10:26:54Z</time>
      </trkpt>
      <trkpt lat="50.720395026728511" lon="4.775759987533093">
        <ele>213.89099999999999</ele>
        <time>2023-04-02T10:27:31Z</time>
      </trkpt>
      <trkpt lat="50.719882976263762" lon="4.775783037766814">
        <ele>209.61199999999999</ele>
        <time>2023-04-02T10:28:30Z</time>
      </trkpt>
      <trkpt lat="50.717099010944366" lon="4.776609996333718">
        <ele>214.51300000000001</ele>
        <time>2023-04-02T10:29:05Z</time>
      </trkpt>
      <trkpt lat="50.714772026985884" lon="4.77781699039042">
        <ele>213.89699999999999</ele>
        <time>2023-04-02T10:29:49Z</time>
      </trkpt>
      <trkpt lat="50.715012000873685" lon="4.776447974145412">
        <ele>213.68100000000001</ele>
        <time>2023-04-02T10:30:33Z</time>
      </trkpt>
      <trkpt lat="50.715292962267995" lon="4.775699973106384">
        <ele>214.12700000000001</ele>
        <time>2023-04-02T10:30:58Z</time>
      </trkpt>
      <trkpt lat="50.716051021590829" lon="4.77463798597455">
        <ele>203.96799999999999</ele>
        <time>2023-04-02T10:31:34Z</time>
      </trkpt>
      <trkpt lat="50.717465970665216" lon="4.773138966411352">
        <ele>207.214</ele>
        <time>2023-04-02T10:32:55Z</time>
      </trkpt>
      <trkpt lat="50.71848101913929" lon="4.772565979510546">
        <ele>199.209</ele>
        <time>2023-04-02T10:33:52Z</time>
      </trkpt>
      <trkpt lat="50.718919979408383" lon="4.77212299592793">
        <ele>197.03299999999999</ele>
        <time>2023-04-02T10:34:15Z</time>
      </trkpt>
      <trkpt lat="50.720783025026321" lon="4.769212966784835">
        <ele>201.57499999999999</ele>
        <time>2023-04-02T10:36:03Z</time>
      </trkpt>
      <trkpt lat="50.722281960770488" lon="4.767477996647358">
        <ele>202.18199999999999</ele>
        <time>2023-04-02T10:37:19Z</time>
      </trkpt>
      <trkpt lat="50.723070027306676" lon="4.766104035079479">
        <ele>194.03399999999999</ele>
        <time>2023-04-02T10:37:55Z</time>
      </trkpt>
      <trkpt lat="50.723791960626841" lon="4.764403011649847">
        <ele>200.952</ele>
        <time>2023-04-02T10:38:06Z</time>
      </trkpt>
      <trkpt lat="50.724571980535984" lon="4.763537999242544">
        <ele>206.13300000000001</ele>
        <time>2023-04-02T10:38:32Z</time>
      </trkpt>
      <trkpt lat="50.72520699352026" lon="4.763170033693314">
        <ele>199.874</ele>
        <time>2023-04-02T10:39:08Z</time>
      </trkpt>
      <trkpt lat="50.725139016285539" lon="4.763281010091305">
        <ele>194.72800000000001</ele>
        <time>2023-04-02T10:39:41Z</time>
      </trkpt>
      <trkpt lat="50.7252929918468" lon="4.763070037588477">
        <ele>200.24199999999999</ele>
        <time>2023-04-02T10:40:06Z</time>
      </trkpt>
      <trkpt lat="50.725654000416398" lon="4.763074982911348">
        <ele>194.18600000000001</ele>
        <time>2023-04-02T10:40:24Z</time>
      </trkpt>
      <trkpt lat="50.726112993434072" lon="4.763196017593145">
        <ele>197.25999999999999</ele>
        <time>2023-04-02T10:40:47Z</time>
      </trkpt>
      <trkpt lat="50.726966019719839" lon="4.764034962281585">
        <ele>186.42599999999999</ele>
        <time>2023-04-02T10:41:39Z</time>
      </trkpt>
      <trkpt lat="50.727181015536189" lon="4.763905964791775">
        <ele>177.90899999999999</ele>
        <time>2023-04-02T10:41:56Z</time>
      </trkpt>
      <trkpt lat="50.726725962013006" lon="4.762397976592183">
        <ele>191.249</ele>
        <time>2023-04-02T10:42:59Z</time>
      </trkpt>
      <trkpt lat="50.726527981460094" lon="4.760625958442688">
        <ele>193.23099999999999</ele>
        <time>2023-04-02T10:44:03Z</time>
      </trkpt>
      <trkpt lat="50.725519973784685" lon="4.75961996242404">
        <ele>200.488</ele>
        <time>2023-04-02T10:45:16Z</time>
      </trkpt>
      <trkpt lat="50.725361974909902" lon="4.759149989113212">
        <ele>205.72</ele>
        <time>2023-04-02T10:45:34Z</time>
      </trkpt>
      <trkpt lat="50.725416960194707" lon="4.758505001664162">
        <ele>206.36799999999999</ele>
        <time>2023-04-02T10:45:59Z</time>
      </trkpt>
      <trkpt lat="50.725946025922894" lon="4.75815799087286">
        <ele>201.529</ele>
        <time>2023-04-02T10:46:39Z</time>
      </trkpt>
      <trkpt lat="50.726169990375638" lon="4.758236026391387">
        <ele>187.53999999999999</ele>
        <time>2023-04-02T10:47:01Z</time>
      </trkpt>
      <trkpt lat="50.726682040840387" lon="4.758041985332966">
        <ele>187.75399999999999</ele>
        <time>2023-04-02T10:47:28Z</time>
      </trkpt>
      <trkpt lat="50.726769967004657" lon="4.757674019783735">
        <ele>191.148</ele>
        <time>2023-04-02T10:47:39Z</time>
      </trkpt>
      <trkpt lat="50.726393032819033" lon="4.75633199326694">
        <ele>203.714</ele>
        <time>2023-04-02T10:48:33Z</time>
      </trkpt>
      <trkpt lat="50.725675038993359" lon="4.7546779923141">
        <ele>206.654</ele>
        <time>2023-04-02T10:49:54Z</time>
      </trkpt>
      <trkpt lat="50.725426012650132" lon="4.752817964181304">
        <ele>200.209</ele>
        <time>2023-04-02T10:51:11Z</time>
      </trkpt>
      <trkpt lat="50.725003983825445" lon="4.752626018598676">
        <ele>199.00899999999999</ele>
        <time>2023-04-02T10:51:37Z</time>
      </trkpt>
      <trkpt lat="50.724137965589762" lon="4.75254999473691">
        <ele>200.58199999999999</ele>
        <time>2023-04-02T10:53:07Z</time>
      </trkpt>
      <trkpt lat="50.723307989537716" lon="4.752002991735935">
        <ele>203.85400000000001</ele>
        <time>2023-04-02T10:54:02Z</time>
      </trkpt>
      <trkpt lat="50.72228497825563" lon="4.750885013490915">
        <ele>193.791</ele>
        <time>2023-04-02T10:55:20Z</time>
      </trkpt>
      <trkpt lat="50.722064031288028" lon="4.750846037641168">
        <ele>192.81299999999999</ele>
        <time>2023-04-02T10:55:32Z</time>
      </trkpt>
      <trkpt lat="50.721784997731447" lon="4.750967994332314">
        <ele>191.59100000000001</ele>
        <time>2023-04-02T10:55:45Z</time>
      </trkpt>
      <trkpt lat="50.721044037491083" lon="4.752080021426082">
        <ele>199.542</ele>
        <time>2023-04-02T10:56:37Z</time>
      </trkpt>
      <trkpt lat="50.718965996056795" lon="4.753397991880775">
        <ele>206.49299999999999</ele>
        <time>2023-04-02T10:58:22Z</time>
      </trkpt>
      <trkpt lat="50.718651004135609" lon="4.753019968047738">
        <ele>204.96700000000001</ele>
        <time>2023-04-02T10:58:43Z</time>
      </trkpt>
      <trkpt lat="50.717293974012136" lon="4.752247994765639">
        <ele>207.78100000000001</ele>
        <time>2023-04-02T11:00:06Z</time>
      </trkpt>
      <trkpt lat="50.71667798794806" lon="4.751318022608757">
        <ele>210.76300000000001</ele>
        <time>2023-04-02T11:00:58Z</time>
      </trkpt>
      <trkpt lat="50.717398999258876" lon="4.749518008902669">
        <ele>211.34399999999999</ele>
        <time>2023-04-02T11:02:19Z</time>
      </trkpt>
      <trkpt lat="50.717720026150346" lon="4.748046984896064">
        <ele>207.31800000000001</ele>
        <time>2023-04-02T11:03:18Z</time>
      </trkpt>
      <trkpt lat="50.719053000211716" lon="4.745513973757625">
        <ele>186.209</ele>
        <time>2023-04-02T11:05:20Z</time>
      </trkpt>
      <trkpt lat="50.71921200491488" lon="4.744619959965348">
        <ele>189.98699999999999</ele>
        <time>2023-04-02T11:05:58Z</time>
      </trkpt>
      <trkpt lat="50.71846098639071" lon="4.743687976151705">
        <ele>195.839</ele>
        <time>2023-04-02T11:06:59Z</time>
      </trkpt>
      <trkpt lat="50.718326959758997" lon="4.743176009505987">
        <ele>188.23599999999999</ele>
        <time>2023-04-02T11:07:23Z</time>
      </trkpt>
      <trkpt lat="50.718489987775683" lon="4.738575015217066">
        <ele>210.37799999999999</ele>
        <time>2023-04-02T11:10:00Z</time>
      </trkpt>
      <trkpt lat="50.718735996633768" lon="4.737153025344014">
        <ele>211.76599999999999</ele>
        <time>2023-04-02T11:10:24Z</time>
      </trkpt>
      <trkpt lat="50.718856025487185" lon="4.737072978168726">
        <ele>212.477</ele>
        <time>2023-04-02T11:10:36Z</time>
      </trkpt>
      <trkpt lat="50.720107024535537" lon="4.738163966685534">
        <ele>208.488</ele>
        <time>2023-04-02T11:11:53Z</time>
      </trkpt>
      <trkpt lat="50.720617985352874" lon="4.739134004339576">
        <ele>205.922</ele>
        <time>2023-04-02T11:12:31Z</time>
      </trkpt>
      <trkpt lat="50.720987962558866" lon="4.740446023643017">
        <ele>201.86600000000001</ele>
        <time>2023-04-02T11:12:58Z</time>
      </trkpt>
      <trkpt lat="50.721486015245318" lon="4.741573976352811">
        <ele>194.59200000000001</ele>
        <time>2023-04-02T11:13:17Z</time>
      </trkpt>
      <trkpt lat="50.72178902104497" lon="4.741754019632936">
        <ele>194.97300000000001</ele>
        <time>2023-04-02T11:13:18Z</time>
      </trkpt>
      <trkpt lat="50.722570968791842" lon="4.743173997849226">
        <ele>205.91999999999999</ele>
        <time>2023-04-02T11:13:41Z</time>
      </trkpt>
      <trkpt lat="50.722709018737078" lon="4.743154970929027">
        <ele>205.709</ele>
        <time>2023-04-02T11:13:44Z</time>
      </trkpt>
      <trkpt lat="50.722750006243587" lon="4.741118000820279">
        <ele>205.44999999999999</ele>
        <time>2023-04-02T11:14:18Z</time>
      </trkpt>
      <trkpt lat="50.722369970753789" lon="4.738785987719894">
        <ele>200.31200000000001</ele>
        <time>2023-04-02T11:15:35Z</time>
      </trkpt>
      <trkpt lat="50.722264023497701" lon="4.736705012619495">
        <ele>200.13900000000001</ele>
        <time>2023-04-02T11:16:59Z</time>
      </trkpt>
      <trkpt lat="50.722580021247268" lon="4.735729023814201">
        <ele>206.441</ele>
        <time>2023-04-02T11:17:35Z</time>
      </trkpt>
      <trkpt lat="50.723774023354053" lon="4.733145972713828">
        <ele>207.06899999999999</ele>
        <time>2023-04-02T11:19:13Z</time>
      </trkpt>
      <trkpt lat="50.724130002781749" lon="4.732048027217388">
        <ele>203.81</ele>
        <time>2023-04-02T11:19:50Z</time>
      </trkpt>
      <trkpt lat="50.724170990288258" lon="4.731475040316582">
        <ele>200.18100000000001</ele>
        <time>2023-04-02T11:20:10Z</time>
      </trkpt>
      <trkpt lat="50.725671015679836" lon="4.729749960824847">
        <ele>194.72499999999999</ele>
        <time>2023-04-02T11:21:49Z</time>
      </trkpt>
      <trkpt lat="50.726844985038042" lon="4.726927019655705">
        <ele>194.38900000000001</ele>
        <time>2023-04-02T11:23:58Z</time>
      </trkpt>
      <trkpt lat="50.727723995223641" lon="4.725494971498847">
        <ele>195.49799999999999</ele>
        <time>2023-04-02T11:25:45Z</time>
      </trkpt>
      <trkpt lat="50.728563023731112" lon="4.724587965756655">
        <ele>192.41499999999999</ele>
        <time>2023-04-02T11:26:51Z</time>
      </trkpt>
      <trkpt lat="50.729449996724725" lon="4.724572962149978">
        <ele>192.02600000000001</ele>
        <time>2023-04-02T11:27:48Z</time>
      </trkpt>
      <trkpt lat="50.730593958869576" lon="4.724857024848461">
        <ele>202.40899999999999</ele>
        <time>2023-04-02T11:28:57Z</time>
      </trkpt>
      <trkpt lat="50.730880033224821" lon="4.724400965496898">
        <ele>192.38</ele>
        <time>2023-04-02T11:29:29Z</time>
      </trkpt>
      <trkpt lat="50.731155965477228" lon="4.724240032956004">
        <ele>189.96199999999999</ele>
        <time>2023-04-02T11:29:48Z</time>
      </trkpt>
      <trkpt lat="50.732924966141582" lon="4.724230980500579">
        <ele>178.65899999999999</ele>
        <time>2023-04-02T11:31:27Z</time>
      </trkpt>
      <trkpt lat="50.732823964208364" lon="4.723001020029187">
        <ele>174.34100000000001</ele>
        <time>2023-04-02T11:32:16Z</time>
      </trkpt>
      <trkpt lat="50.733315981924534" lon="4.722671024501324">
        <ele>161.96899999999999</ele>
        <time>2023-04-02T11:32:49Z</time>
      </trkpt>
      <trkpt lat="50.73401796631515" lon="4.721154989674687">
        <ele>138.63</ele>
        <time>2023-04-02T11:33:36Z</time>
      </trkpt>
      <trkpt lat="50.734164984896779" lon="4.71995897591114">
        <ele>145.56100000000001</ele>
        <time>2023-04-02T11:34:11Z</time>
      </trkpt>
      <trkpt lat="50.733960969373584" lon="4.719261014834046">
        <ele>148.17500000000001</ele>
        <time>2023-04-02T11:34:36Z</time>
      </trkpt>
      <trkpt lat="50.733613958582282" lon="4.719430999830365">
        <ele>160.59899999999999</ele>
        <time>2023-04-02T11:34:57Z</time>
      </trkpt>
      <trkpt lat="50.733069973066449" lon="4.719220027327538">
        <ele>161.315</ele>
        <time>2023-04-02T11:35:25Z</time>
      </trkpt>
      <trkpt lat="50.732319038361311" lon="4.719252968207002">
        <ele>156.86500000000001</ele>
        <time>2023-04-02T11:35:45Z</time>
      </trkpt>
      <trkpt lat="50.731212040409446" lon="4.719645995646715">
        <ele>151.21100000000001</ele>
        <time>2023-04-02T11:36:08Z</time>
      </trkpt>
      <trkpt lat="50.729664992541075" lon="4.721192959696055">
        <ele>183.90899999999999</ele>
        <time>2023-04-02T11:36:53Z</time>
      </trkpt>
      <trkpt lat="50.728035969659686" lon="4.723251974210143">
        <ele>195.28200000000001</ele>
        <time>2023-04-02T11:37:28Z</time>
      </trkpt>
      <trkpt lat="50.727380001917481" lon="4.723585993051529">
        <ele>197.45400000000001</ele>
        <time>2023-04-02T11:37:39Z</time>
      </trkpt>
      <trkpt lat="50.726509038358927" lon="4.723709039390087">
        <ele>194.59100000000001</ele>
        <time>2023-04-02T11:37:55Z</time>
      </trkpt>
      <trkpt lat="50.726051973178983" lon="4.723999975249171">
        <ele>199.63300000000001</ele>
        <time>2023-04-02T11:38:02Z</time>
      </trkpt>
      <trkpt lat="50.725132981315255" lon="4.724970012903214">
        <ele>203.03100000000001</ele>
        <time>2023-04-02T11:38:19Z</time>
      </trkpt>
      <trkpt lat="50.723955994471908" lon="4.725665040314198">
        <ele>204.03200000000001</ele>
        <time>2023-04-02T11:38:37Z</time>
      </trkpt>
      <trkpt lat="50.72198498994112" lon="4.727165987715125">
        <ele>211.833</ele>
        <time>2023-04-02T11:39:12Z</time>
      </trkpt>
      <trkpt lat="50.720290001481771" lon="4.728222023695707">
        <ele>210.077</ele>
        <time>2023-04-02T11:40:51Z</time>
      </trkpt>
      <trkpt lat="50.719783985987306" lon="4.728124961256981">
        <ele>207.661</ele>
        <time>2023-04-02T11:41:21Z</time>
      </trkpt>
      <trkpt lat="50.719573013484478" lon="4.72891403362155">
        <ele>206.327</ele>
        <time>2023-04-02T11:41:54Z</time>
      </trkpt>
      <trkpt lat="50.718724010512233" lon="4.730022959411144">
        <ele>205.66800000000001</ele>
        <time>2023-04-02T11:43:01Z</time>
      </trkpt>
      <trkpt lat="50.718614961951971" lon="4.727586004883051">
        <ele>204.81399999999999</ele>
        <time>2023-04-02T11:44:38Z</time>
      </trkpt>
      <trkpt lat="50.718389991670847" lon="4.726951997727156">
        <ele>202.809</ele>
        <time>2023-04-02T11:45:05Z</time>
      </trkpt>
      <trkpt lat="50.718027977272868" lon="4.726616973057389">
        <ele>201.49299999999999</ele>
        <time>2023-04-02T11:45:38Z</time>
      </trkpt>
      <trkpt lat="50.71788003668189" lon="4.725759001448751">
        <ele>193.625</ele>
        <time>2023-04-02T11:46:15Z</time>
      </trkpt>
      <trkpt lat="50.717393970116973" lon="4.725510980933905">
        <ele>195.042</ele>
        <time>2023-04-02T11:47:01Z</time>
      </trkpt>
      <trkpt lat="50.717190038412809" lon="4.725151984021068">
        <ele>194.03399999999999</ele>
        <time>2023-04-02T11:47:26Z</time>
      </trkpt>
      <trkpt lat="50.71659198962152" lon="4.723168993368745">
        <ele>178.94200000000001</ele>
        <time>2023-04-02T11:48:50Z</time>
      </trkpt>
      <trkpt lat="50.716115981340408" lon="4.723153989762068">
        <ele>184.583</ele>
        <time>2023-04-02T11:49:17Z</time>
      </trkpt>
      <trkpt lat="50.715660005807877" lon="4.723827978596091">
        <ele>185.714</ele>
        <time>2023-04-02T11:49:53Z</time>
      </trkpt>
      <trkpt lat="50.714778983965516" lon="4.724150011315942">
        <ele>192.428</ele>
        <time>2023-04-02T11:50:58Z</time>
      </trkpt>
      <trkpt lat="50.71283002384007" lon="4.725887998938561">
        <ele>200.352</ele>
        <time>2023-04-02T11:53:36Z</time>
      </trkpt>
      <trkpt lat="50.710699008777738" lon="4.728904981166124">
        <ele>204.54300000000001</ele>
        <time>2023-04-02T11:58:39Z</time>
      </trkpt>
      <trkpt lat="50.708543015643954" lon="4.730903981253505">
        <ele>213.66399999999999</ele>
        <time>2023-04-02T12:00:00Z</time>
      </trkpt>
      <trkpt lat="50.70653798058629" lon="4.733817027881742">
        <ele>223.61000000000001</ele>
        <time>2023-04-02T12:01:03Z</time>
      </trkpt>
      <trkpt lat="50.705660982057452" lon="4.734832998365164">
        <ele>225.309</ele>
        <time>2023-04-02T12:02:12Z</time>
      </trkpt>
      <trkpt lat="50.703509012237191" lon="4.735156958922744">
        <ele>222.185</ele>
        <time>2023-04-02T12:04:27Z</time>
      </trkpt>
      <trkpt lat="50.703245988115668" lon="4.735144972801209">
        <ele>210.916</ele>
        <time>2023-04-02T12:07:46Z</time>
      </trkpt>
      <trkpt lat="50.702871987596154" lon="4.738090038299561">
        <ele>221.054</ele>
        <time>2023-04-02T12:09:46Z</time>
      </trkpt>
      <trkpt lat="50.702993022277951" lon="4.738464960828424">
        <ele>234.39500000000001</ele>
        <time>2023-04-02T12:09:58Z</time>
      </trkpt>
      <trkpt lat="50.702476026490331" lon="4.74013002589345">
        <ele>223.73599999999999</ele>
        <time>2023-04-02T12:11:12Z</time>
      </trkpt>
      <trkpt lat="50.701683014631271" lon="4.740660013630986">
        <ele>235.34999999999999</ele>
        <time>2023-04-02T12:12:13Z</time>
      </trkpt>
      <trkpt lat="50.701172975823283" lon="4.741546986624599">
        <ele>231.684</ele>
        <time>2023-04-02T12:13:02Z</time>
      </trkpt>
      <trkpt lat="50.700839962810278" lon="4.741595014929771">
        <ele>237.96199999999999</ele>
        <time>2023-04-02T12:13:25Z</time>
      </trkpt>
      <trkpt lat="50.699735982343554" lon="4.7426020167768">
        <ele>229.78299999999999</ele>
        <time>2023-04-02T12:15:22Z</time>
      </trkpt>
      <trkpt lat="50.699394000694156" lon="4.742725985124707">
        <ele>231.31100000000001</ele>
        <time>2023-04-02T12:15:52Z</time>
      </trkpt>
      <trkpt lat="50.698623033240438" lon="4.743362003937364">
        <ele>228.90899999999999</ele>
        <time>2023-04-02T12:16:55Z</time>
      </trkpt>
      <trkpt lat="50.697417967021465" lon="4.74535102955997">
        <ele>219.667</ele>
        <time>2023-04-02T12:18:30Z</time>
      </trkpt>
      <trkpt lat="50.696285990998149" lon="4.746343027800322">
        <ele>208.22900000000001</ele>
        <time>2023-04-02T12:19:10Z</time>
      </trkpt>
      <trkpt lat="50.695144962519407" lon="4.748470019549131">
        <ele>239.67599999999999</ele>
        <time>2023-04-02T12:21:46Z</time>
      </trkpt>
      <trkpt lat="50.693771000951529" lon="4.749887986108661">
        <ele>234.62799999999999</ele>
        <time>2023-04-02T12:23:12Z</time>
      </trkpt>
      <trkpt lat="50.693910978734493" lon="4.752986021339893">
        <ele>233.61600000000001</ele>
        <time>2023-04-02T12:24:46Z</time>
      </trkpt>
      <trkpt lat="50.693572014570236" lon="4.755969978868961">
        <ele>225.55699999999999</ele>
        <time>2023-04-02T12:26:26Z</time>
      </trkpt>
      <trkpt lat="50.693632028996944" lon="4.757013022899628">
        <ele>217.298</ele>
        <time>2023-04-02T12:27:06Z</time>
      </trkpt>
      <trkpt lat="50.693462966009974" lon="4.757531024515629">
        <ele>217.58199999999999</ele>
        <time>2023-04-02T12:27:27Z</time>
      </trkpt>
      <trkpt lat="50.693407980725169" lon="4.759289966896176">
        <ele>213.79599999999999</ele>
        <time>2023-04-02T12:28:34Z</time>
      </trkpt>
      <trkpt lat="50.69293599575758" lon="4.760888982564211">
        <ele>216.81700000000001</ele>
        <time>2023-04-02T12:29:36Z</time>
      </trkpt>
      <trkpt lat="50.692949993535876" lon="4.763889033347368">
        <ele>216.98699999999999</ele>
        <time>2023-04-02T12:31:05Z</time>
      </trkpt>
      <trkpt lat="50.692207021638751" lon="4.765897002071142">
        <ele>216.51499999999999</ele>
        <time>2023-04-02T12:32:54Z</time>
      </trkpt>
      <trkpt lat="50.692296959459782" lon="4.766394970938563">
        <ele>221.00899999999999</ele>
        <time>2023-04-02T12:33:14Z</time>
      </trkpt>
      <trkpt lat="50.692165028303862" lon="4.766886988654733">
        <ele>216.28200000000001</ele>
        <time>2023-04-02T12:33:33Z</time>
      </trkpt>
      <trkpt lat="50.692195035517216" lon="4.76784897968173">
        <ele>211.934</ele>
        <time>2023-04-02T12:34:06Z</time>
      </trkpt>
      <trkpt lat="50.692392010241747" lon="4.770387019962072">
        <ele>211.37100000000001</ele>
        <time>2023-04-02T12:35:33Z</time>
      </trkpt>
      <trkpt lat="50.691749034449458" lon="4.772128025069833">
        <ele>213.54300000000001</ele>
        <time>2023-04-02T12:36:52Z</time>
      </trkpt>
      <trkpt lat="50.691949026659131" lon="4.773486983031035">
        <ele>212.791</ele>
        <time>2023-04-02T12:37:41Z</time>
      </trkpt>
      <trkpt lat="50.692066038027406" lon="4.773402996361256">
        <ele>210.792</ele>
        <time>2023-04-02T12:37:56Z</time>
      </trkpt>
      <trkpt lat="50.691968975588679" lon="4.773610029369593">
        <ele>210.41300000000001</ele>
        <time>2023-04-02T12:38:01Z</time>
      </trkpt>
      <trkpt lat="50.692051034420729" lon="4.774589035660029">
        <ele>207.23699999999999</ele>
        <time>2023-04-02T12:38:42Z</time>
      </trkpt>
      <trkpt lat="50.692673977464437" lon="4.775696033611894">
        <ele>211.62100000000001</ele>
        <time>2023-04-02T12:39:40Z</time>
      </trkpt>
      <trkpt lat="50.693158032372594" lon="4.777680030092597">
        <ele>213.458</ele>
        <time>2023-04-02T12:41:08Z</time>
      </trkpt>
      <trkpt lat="50.693815005943179" lon="4.779353979974985">
        <ele>204.452</ele>
        <time>2023-04-02T12:42:29Z</time>
      </trkpt>
      <trkpt lat="50.694119017571211" lon="4.78177098557353">
        <ele>209.71700000000001</ele>
        <time>2023-04-02T12:43:53Z</time>
      </trkpt>
      <trkpt lat="50.69383998401463" lon="4.782312959432602">
        <ele>208.709</ele>
        <time>2023-04-02T12:44:22Z</time>
      </trkpt>
      <trkpt lat="50.692715970799327" lon="4.783267993479967">
        <ele>208.226</ele>
        <time>2023-04-02T12:45:39Z</time>
      </trkpt>
      <trkpt lat="50.691745011135936" lon="4.783291965723038">
        <ele>212.52799999999999</ele>
        <time>2023-04-02T12:46:33Z</time>
      </trkpt>
      <trkpt lat="50.691078985109925" lon="4.783741990104318">
        <ele>211.14500000000001</ele>
        <time>2023-04-02T12:47:23Z</time>
      </trkpt>
      <trkpt lat="50.689486004412174" lon="4.785184012725949">
        <ele>224.24700000000001</ele>
        <time>2023-04-02T12:49:52Z</time>
      </trkpt>
      <trkpt lat="50.688501968979836" lon="4.786285981535912">
        <ele>228.26499999999999</ele>
        <time>2023-04-02T12:51:16Z</time>
      </trkpt>
      <trkpt lat="50.688054040074348" lon="4.787202039733529">
        <ele>233.67599999999999</ele>
        <time>2023-04-02T12:52:30Z</time>
      </trkpt>
      <trkpt lat="50.687048966065049" lon="4.788658982142806">
        <ele>228.517</ele>
        <time>2023-04-02T12:54:03Z</time>
      </trkpt>
      <trkpt lat="50.686563989147544" lon="4.790678014978766">
        <ele>226.351</ele>
        <time>2023-04-02T12:55:30Z</time>
      </trkpt>
      <trkpt lat="50.68573703058064" lon="4.791978970170021">
        <ele>228.13499999999999</ele>
        <time>2023-04-02T12:56:47Z</time>
      </trkpt>
      <trkpt lat="50.684355022385716" lon="4.794853962957859">
        <ele>213.98400000000001</ele>
        <time>2023-04-02T12:59:19Z</time>
      </trkpt>
      <trkpt lat="50.684295007959008" lon="4.79507097043097">
        <ele>213.90700000000001</ele>
        <time>2023-04-02T12:59:28Z</time>
      </trkpt>
      <trkpt lat="50.68447002209723" lon="4.795616967603564">
        <ele>219.31700000000001</ele>
        <time>2023-04-02T12:59:53Z</time>
      </trkpt>
      <trkpt lat="50.68535297177732" lon="4.79680996388197">
        <ele>210.809</ele>
        <time>2023-04-02T13:00:59Z</time>
      </trkpt>
      <trkpt lat="50.686231981962919" lon="4.797450006008148">
        <ele>207.489</ele>
        <time>2023-04-02T13:01:50Z</time>
      </trkpt>
      <trkpt lat="50.686174985021353" lon="4.797310028225184">
        <ele>216.321</ele>
        <time>2023-04-02T13:01:55Z</time>
      </trkpt>
      <trkpt lat="50.686471033841372" lon="4.797772960737348">
        <ele>208.03800000000001</ele>
        <time>2023-04-02T13:02:21Z</time>
      </trkpt>
      <trkpt lat="50.686760041862726" lon="4.797898018732667">
        <ele>204.88</ele>
        <time>2023-04-02T13:02:41Z</time>
      </trkpt>
      <trkpt lat="50.688306000083685" lon="4.797968007624149">
        <ele>201.518</ele>
        <time>2023-04-02T13:04:20Z</time>
      </trkpt>
      <trkpt lat="50.688945958390832" lon="4.798325998708606">
        <ele>204.97900000000001</ele>
        <time>2023-04-02T13:05:05Z</time>
      </trkpt>
      <trkpt lat="50.689102029427886" lon="4.798526996746659">
        <ele>207.94</ele>
        <time>2023-04-02T13:05:17Z</time>
      </trkpt>
      <trkpt lat="50.688970014452934" lon="4.798622969537973">
        <ele>208.44399999999999</ele>
        <time>2023-04-02T13:05:56Z</time>
      </trkpt>
      <trkpt lat="50.688956016674638" lon="4.798486009240151">
        <ele>208.46799999999999</ele>
        <time>2023-04-02T13:06:01Z</time>
      </trkpt>
      <trkpt lat="50.68898200057447" lon="4.798865038901568">
        <ele>199.066</ele>
        <time>2023-04-02T13:06:12Z</time>
      </trkpt>
      <trkpt lat="50.689107980579138" lon="4.799008034169674">
        <ele>199.72900000000001</ele>
        <time>2023-04-02T13:06:27Z</time>
      </trkpt>
      <trkpt lat="50.68908803164959" lon="4.79885003529489">
        <ele>203.02099999999999</ele>
        <time>2023-04-02T13:11:44Z</time>
      </trkpt>
      <trkpt lat="50.689190039411187" lon="4.798856992274523">
        <ele>203.809</ele>
        <time>2023-04-02T13:12:14Z</time>
      </trkpt>
      <trkpt lat="50.689095994457603" lon="4.798972997814417">
        <ele>198.48699999999999</ele>
        <time>2023-04-02T13:14:19Z</time>
      </trkpt>
      <trkpt lat="50.689063975587487" lon="4.798459019511938">
        <ele>202.119</ele>
        <time>2023-04-02T14:01:56Z</time>
      </trkpt>
      <trkpt lat="50.688925003632903" lon="4.798816004768014">
        <ele>201.51599999999999</ele>
        <time>2023-04-02T14:02:00Z</time>
      </trkpt>
      <trkpt lat="50.68900496698916" lon="4.799235016107559">
        <ele>195.86799999999999</ele>
        <time>2023-04-02T14:02:13Z</time>
      </trkpt>
      <trkpt lat="50.689146034419537" lon="4.798824973404408">
        <ele>194.73599999999999</ele>
        <time>2023-04-02T14:03:03Z</time>
      </trkpt>
      <trkpt lat="50.689050983637571" lon="4.798824973404408">
        <ele>195.727</ele>
        <time>2023-04-02T14:07:05Z</time>
      </trkpt>
      <trkpt lat="50.689097000285983" lon="4.799077017232776">
        <ele>189.738</ele>
        <time>2023-04-02T14:07:27Z</time>
      </trkpt>
      <trkpt lat="50.689147962257266" lon="4.798910971730948">
        <ele>194.02199999999999</ele>
        <time>2023-04-02T14:10:14Z</time>
      </trkpt>
      <trkpt lat="50.689018964767456" lon="4.798879958689213">
        <ele>198.596</ele>
        <time>2023-04-02T14:10:34Z</time>
      </trkpt>
      <trkpt lat="50.689065987244248" lon="4.79900099337101">
        <ele>194.59200000000001</ele>
        <time>2023-04-02T14:14:05Z</time>
      </trkpt>
      <trkpt lat="50.688948975875974" lon="4.798662029206753">
        <ele>199.273</ele>
        <time>2023-04-02T14:17:33Z</time>
      </trkpt>
      <trkpt lat="50.689152991399169" lon="4.798514004796743">
        <ele>199.12</ele>
        <time>2023-04-02T14:17:54Z</time>
      </trkpt>
      <trkpt lat="50.689668981358409" lon="4.798708967864513">
        <ele>185.50899999999999</ele>
        <time>2023-04-02T14:18:32Z</time>
      </trkpt>
      <trkpt lat="50.689880959689617" lon="4.798961011692882">
        <ele>185.72999999999999</ele>
        <time>2023-04-02T14:18:49Z</time>
      </trkpt>
      <trkpt lat="50.690326960757375" lon="4.798991018906236">
        <ele>205.482</ele>
        <time>2023-04-02T14:19:16Z</time>
      </trkpt>
      <trkpt lat="50.690587973222136" lon="4.799389997497201">
        <ele>202.63900000000001</ele>
        <time>2023-04-02T14:19:38Z</time>
      </trkpt>
      <trkpt lat="50.691334968432784" lon="4.798900997266173">
        <ele>196.221</ele>
        <time>2023-04-02T14:20:37Z</time>
      </trkpt>
      <trkpt lat="50.691908961161971" lon="4.79955998249352">
        <ele>197.72900000000001</ele>
        <time>2023-04-02T14:21:35Z</time>
      </trkpt>
      <trkpt lat="50.692952005192637" lon="4.799019014462829">
        <ele>210.00999999999999</ele>
        <time>2023-04-02T14:22:42Z</time>
      </trkpt>
      <trkpt lat="50.693346038460732" lon="4.799159998074174">
        <ele>207.791</ele>
        <time>2023-04-02T14:23:08Z</time>
      </trkpt>
      <trkpt lat="50.693498002365232" lon="4.79908799752593">
        <ele>208.11500000000001</ele>
        <time>2023-04-02T14:23:19Z</time>
      </trkpt>
      <trkpt lat="50.694714970886707" lon="4.797899024561048">
        <ele>198.989</ele>
        <time>2023-04-02T14:24:48Z</time>
      </trkpt>
      <trkpt lat="50.696385987102985" lon="4.796592034399509">
        <ele>202.398</ele>
        <time>2023-04-02T14:26:41Z</time>
      </trkpt>
      <trkpt lat="50.697184028103948" lon="4.794755978509784">
        <ele>203.61500000000001</ele>
        <time>2023-04-02T14:28:37Z</time>
      </trkpt>
      <trkpt lat="50.698227994143963" lon="4.793874034658074">
        <ele>194.226</ele>
        <time>2023-04-02T14:29:54Z</time>
      </trkpt>
      <trkpt lat="50.699004996567965" lon="4.793731039389968">
        <ele>197.309</ele>
        <time>2023-04-02T14:30:39Z</time>
      </trkpt>
      <trkpt lat="50.699283024296165" lon="4.793417975306511">
        <ele>201.99000000000001</ele>
        <time>2023-04-02T14:30:58Z</time>
      </trkpt>
      <trkpt lat="50.701360981911421" lon="4.792826967313886">
        <ele>202.452</ele>
        <time>2023-04-02T14:31:42Z</time>
      </trkpt>
      <trkpt lat="50.702392961829901" lon="4.792337967082858">
        <ele>203.32900000000001</ele>
        <time>2023-04-02T14:32:00Z</time>
      </trkpt>
      <trkpt lat="50.703770024701953" lon="4.790305020287633">
        <ele>205.661</ele>
        <time>2023-04-02T14:32:29Z</time>
      </trkpt>
      <trkpt lat="50.704849027097225" lon="4.789431039243937">
        <ele>205.089</ele>
        <time>2023-04-02T14:32:57Z</time>
      </trkpt>
      <trkpt lat="50.705825015902519" lon="4.787793969735503">
        <ele>209.72999999999999</ele>
        <time>2023-04-02T14:36:43Z</time>
      </trkpt>
      <trkpt lat="50.708701014518738" lon="4.784392006695271">
        <ele>221.351</ele>
        <time>2023-04-02T14:40:35Z</time>
      </trkpt>
      <trkpt lat="50.708809979259968" lon="4.783952962607145">
        <ele>225.29499999999999</ele>
        <time>2023-04-02T14:40:55Z</time>
      </trkpt>
      <trkpt lat="50.709209041669965" lon="4.783931002020836">
        <ele>222.28899999999999</ele>
        <time>2023-04-02T14:41:33Z</time>
      </trkpt>
      <trkpt lat="50.709317000582814" lon="4.784445986151695">
        <ele>227.24600000000001</ele>
        <time>2023-04-02T14:42:00Z</time>
      </trkpt>
      <trkpt lat="50.710494993254542" lon="4.784096041694284">
        <ele>219.988</ele>
        <time>2023-04-02T14:43:19Z</time>
      </trkpt>
      <trkpt lat="50.710605969652534" lon="4.785360032692552">
        <ele>218.01599999999999</ele>
        <time>2023-04-02T14:44:13Z</time>
      </trkpt>
      <trkpt lat="50.710390973836184" lon="4.786717984825373">
        <ele>218.50899999999999</ele>
        <time>2023-04-02T14:45:10Z</time>
      </trkpt>
      <trkpt lat="50.710663972422481" lon="4.787383005023003">
        <ele>223.14500000000001</ele>
        <time>2023-04-02T14:45:37Z</time>
      </trkpt>
      <trkpt lat="50.711245005950332" lon="4.787780977785587">
        <ele>223.637</ele>
        <time>2023-04-02T14:46:14Z</time>
      </trkpt>
      <trkpt lat="50.712083028629422" lon="4.78797996416688">
        <ele>223.17400000000001</ele>
        <time>2023-04-02T14:47:04Z</time>
      </trkpt>
    </trkseg>
  </trk>

</gpx>